sensor_id;sensor_type;location;lat;lon;timestamp;P1;durP1;ratioP1;P2;durP2;ratioP2
53879;SDS011;39791;53.184;5.486;2024-01-16T00:00:33;36.75;;;33.10;;
53879;SDS011;39791;53.184;5.486;2024-01-16T00:02:59;38.65;;;34.60;;
53879;SDS011;39791;53.184;5.486;2024-01-16T00:05:25;40.38;;;35.55;;
53879;SDS011;39791;53.184;5.486;2024-01-16T00:07:50;42.28;;;35.35;;
53879;SDS011;39791;53.184;5.486;2024-01-16T00:10:16;40.10;;;34.88;;
53879;SDS011;39791;53.184;5.486;2024-01-16T00:12:42;40.97;;;36.58;;
53879;SDS011;39791;53.184;5.486;2024-01-16T00:15:09;40.55;;;36.58;;
53879;SDS011;39791;53.184;5.486;2024-01-16T00:17:35;40.20;;;36.28;;
53879;SDS011;39791;53.184;5.486;2024-01-16T00:20:00;40.42;;;36.15;;
53879;SDS011;39791;53.184;5.486;2024-01-16T00:22:26;44.13;;;36.03;;
53879;SDS011;39791;53.184;5.486;2024-01-16T00:24:52;40.85;;;36.78;;
53879;SDS011;39791;53.184;5.486;2024-01-16T00:27:18;46.28;;;34.03;;
53879;SDS011;39791;53.184;5.486;2024-01-16T00:29:43;35.55;;;31.33;;
53879;SDS011;39791;53.184;5.486;2024-01-16T00:32:09;32.08;;;29.17;;
53879;SDS011;39791;53.184;5.486;2024-01-16T00:34:34;31.77;;;28.67;;
53879;SDS011;39791;53.184;5.486;2024-01-16T00:37:00;37.88;;;28.42;;
53879;SDS011;39791;53.184;5.486;2024-01-16T00:39:25;32.45;;;29.17;;
53879;SDS011;39791;53.184;5.486;2024-01-16T00:41:51;32.63;;;29.27;;
53879;SDS011;39791;53.184;5.486;2024-01-16T00:44:17;30.77;;;27.77;;
53879;SDS011;39791;53.184;5.486;2024-01-16T00:46:42;30.63;;;27.83;;
53879;SDS011;39791;53.184;5.486;2024-01-16T00:49:08;29.05;;;25.00;;
53879;SDS011;39791;53.184;5.486;2024-01-16T00:51:34;26.98;;;24.58;;
53879;SDS011;39791;53.184;5.486;2024-01-16T00:54:00;25.35;;;23.17;;
53879;SDS011;39791;53.184;5.486;2024-01-16T00:56:25;24.85;;;22.75;;
53879;SDS011;39791;53.184;5.486;2024-01-16T00:58:52;25.20;;;23.13;;
53879;SDS011;39791;53.184;5.486;2024-01-16T01:01:19;27.67;;;23.80;;
53879;SDS011;39791;53.184;5.486;2024-01-16T01:03:45;25.08;;;22.63;;
53879;SDS011;39791;53.184;5.486;2024-01-16T01:06:11;25.02;;;22.80;;
53879;SDS011;39791;53.184;5.486;2024-01-16T01:08:36;25.15;;;22.85;;
53879;SDS011;39791;53.184;5.486;2024-01-16T01:11:02;25.95;;;23.02;;
53879;SDS011;39791;53.184;5.486;2024-01-16T01:13:28;26.65;;;23.85;;
53879;SDS011;39791;53.184;5.486;2024-01-16T01:15:53;27.33;;;24.75;;
53879;SDS011;39791;53.184;5.486;2024-01-16T01:18:19;27.05;;;24.55;;
53879;SDS011;39791;53.184;5.486;2024-01-16T01:20:45;25.85;;;23.65;;
53879;SDS011;39791;53.184;5.486;2024-01-16T01:23:10;28.75;;;26.00;;
53879;SDS011;39791;53.184;5.486;2024-01-16T01:25:36;28.02;;;25.02;;
53879;SDS011;39791;53.184;5.486;2024-01-16T01:28:01;34.70;;;27.00;;
53879;SDS011;39791;53.184;5.486;2024-01-16T01:30:27;29.02;;;26.52;;
53879;SDS011;39791;53.184;5.486;2024-01-16T01:32:53;28.90;;;25.08;;
53879;SDS011;39791;53.184;5.486;2024-01-16T01:35:18;26.60;;;24.20;;
53879;SDS011;39791;53.184;5.486;2024-01-16T01:37:46;27.20;;;24.42;;
53879;SDS011;39791;53.184;5.486;2024-01-16T01:40:12;28.98;;;25.73;;
53879;SDS011;39791;53.184;5.486;2024-01-16T01:42:40;28.10;;;25.20;;
53879;SDS011;39791;53.184;5.486;2024-01-16T01:45:06;27.40;;;24.80;;
53879;SDS011;39791;53.184;5.486;2024-01-16T01:47:33;27.15;;;24.02;;
53879;SDS011;39791;53.184;5.486;2024-01-16T01:49:59;23.92;;;21.75;;
53879;SDS011;39791;53.184;5.486;2024-01-16T01:52:26;25.13;;;22.80;;
53879;SDS011;39791;53.184;5.486;2024-01-16T01:54:51;23.90;;;21.45;;
53879;SDS011;39791;53.184;5.486;2024-01-16T01:57:17;31.90;;;23.13;;
53879;SDS011;39791;53.184;5.486;2024-01-16T01:59:43;23.42;;;21.30;;
53879;SDS011;39791;53.184;5.486;2024-01-16T02:02:08;24.55;;;21.92;;
53879;SDS011;39791;53.184;5.486;2024-01-16T02:04:36;27.38;;;23.48;;
53879;SDS011;39791;53.184;5.486;2024-01-16T02:07:03;25.73;;;23.50;;
53879;SDS011;39791;53.184;5.486;2024-01-16T02:09:29;27.50;;;25.10;;
53879;SDS011;39791;53.184;5.486;2024-01-16T02:11:55;26.00;;;23.80;;
53879;SDS011;39791;53.184;5.486;2024-01-16T02:14:20;25.17;;;22.88;;
53879;SDS011;39791;53.184;5.486;2024-01-16T02:16:46;27.05;;;24.60;;
53879;SDS011;39791;53.184;5.486;2024-01-16T02:19:11;34.10;;;26.63;;
53879;SDS011;39791;53.184;5.486;2024-01-16T02:21:44;33.42;;;30.13;;
53879;SDS011;39791;53.184;5.486;2024-01-16T02:24:15;34.58;;;31.40;;
53879;SDS011;39791;53.184;5.486;2024-01-16T02:26:42;30.52;;;27.83;;
53879;SDS011;39791;53.184;5.486;2024-01-16T02:29:08;31.52;;;28.70;;
53879;SDS011;39791;53.184;5.486;2024-01-16T02:31:34;33.80;;;29.92;;
53879;SDS011;39791;53.184;5.486;2024-01-16T02:34:00;33.83;;;30.30;;
53879;SDS011;39791;53.184;5.486;2024-01-16T02:36:26;34.05;;;30.35;;
53879;SDS011;39791;53.184;5.486;2024-01-16T02:38:52;32.63;;;29.38;;
53879;SDS011;39791;53.184;5.486;2024-01-16T02:41:18;34.92;;;28.95;;
53879;SDS011;39791;53.184;5.486;2024-01-16T02:43:44;42.03;;;37.92;;
53879;SDS011;39791;53.184;5.486;2024-01-16T02:46:10;38.20;;;34.30;;
53879;SDS011;39791;53.184;5.486;2024-01-16T02:48:36;47.33;;;42.50;;
53879;SDS011;39791;53.184;5.486;2024-01-16T02:51:02;39.88;;;34.67;;
53879;SDS011;39791;53.184;5.486;2024-01-16T02:53:28;35.53;;;32.13;;
53879;SDS011;39791;53.184;5.486;2024-01-16T02:55:54;51.58;;;46.72;;
53879;SDS011;39791;53.184;5.486;2024-01-16T02:58:20;46.60;;;41.78;;
53879;SDS011;39791;53.184;5.486;2024-01-16T03:00:46;38.42;;;34.85;;
53879;SDS011;39791;53.184;5.486;2024-01-16T03:03:12;38.03;;;33.13;;
53879;SDS011;39791;53.184;5.486;2024-01-16T03:05:39;35.67;;;31.92;;
53879;SDS011;39791;53.184;5.486;2024-01-16T03:08:05;41.65;;;37.63;;
53879;SDS011;39791;53.184;5.486;2024-01-16T03:10:31;44.75;;;39.78;;
53879;SDS011;39791;53.184;5.486;2024-01-16T03:12:57;46.15;;;32.33;;
53879;SDS011;39791;53.184;5.486;2024-01-16T03:15:22;35.90;;;29.27;;
53879;SDS011;39791;53.184;5.486;2024-01-16T03:17:48;30.45;;;27.27;;
53879;SDS011;39791;53.184;5.486;2024-01-16T03:20:14;33.85;;;30.13;;
53879;SDS011;39791;53.184;5.486;2024-01-16T03:22:40;32.95;;;29.88;;
53879;SDS011;39791;53.184;5.486;2024-01-16T03:25:07;28.63;;;26.02;;
53879;SDS011;39791;53.184;5.486;2024-01-16T03:27:34;28.92;;;25.85;;
53879;SDS011;39791;53.184;5.486;2024-01-16T03:30:00;27.00;;;24.70;;
53879;SDS011;39791;53.184;5.486;2024-01-16T03:32:26;28.20;;;25.63;;
53879;SDS011;39791;53.184;5.486;2024-01-16T03:34:52;27.17;;;24.73;;
53879;SDS011;39791;53.184;5.486;2024-01-16T03:37:17;24.38;;;22.48;;
53879;SDS011;39791;53.184;5.486;2024-01-16T03:39:43;27.17;;;24.77;;
53879;SDS011;39791;53.184;5.486;2024-01-16T03:42:10;28.10;;;25.27;;
53879;SDS011;39791;53.184;5.486;2024-01-16T03:44:38;28.23;;;25.35;;
53879;SDS011;39791;53.184;5.486;2024-01-16T03:47:05;29.40;;;26.25;;
53879;SDS011;39791;53.184;5.486;2024-01-16T03:49:31;30.02;;;26.17;;
53879;SDS011;39791;53.184;5.486;2024-01-16T03:51:56;30.80;;;27.83;;
53879;SDS011;39791;53.184;5.486;2024-01-16T03:54:22;33.72;;;31.17;;
53879;SDS011;39791;53.184;5.486;2024-01-16T03:56:47;30.77;;;28.10;;
53879;SDS011;39791;53.184;5.486;2024-01-16T03:59:13;32.50;;;29.15;;
53879;SDS011;39791;53.184;5.486;2024-01-16T04:01:38;162.05;;;38.92;;
53879;SDS011;39791;53.184;5.486;2024-01-16T04:04:04;40.45;;;35.97;;
53879;SDS011;39791;53.184;5.486;2024-01-16T04:06:32;40.90;;;36.63;;
53879;SDS011;39791;53.184;5.486;2024-01-16T04:08:58;44.00;;;39.65;;
53879;SDS011;39791;53.184;5.486;2024-01-16T04:11:24;39.05;;;34.95;;
53879;SDS011;39791;53.184;5.486;2024-01-16T04:13:49;39.35;;;35.45;;
53879;SDS011;39791;53.184;5.486;2024-01-16T04:16:15;38.70;;;34.42;;
53879;SDS011;39791;53.184;5.486;2024-01-16T04:18:42;38.45;;;34.60;;
53879;SDS011;39791;53.184;5.486;2024-01-16T04:21:08;37.38;;;33.80;;
53879;SDS011;39791;53.184;5.486;2024-01-16T04:23:34;35.63;;;32.00;;
53879;SDS011;39791;53.184;5.486;2024-01-16T04:25:59;38.28;;;34.30;;
53879;SDS011;39791;53.184;5.486;2024-01-16T04:28:25;35.05;;;31.77;;
53879;SDS011;39791;53.184;5.486;2024-01-16T04:30:51;34.78;;;31.63;;
53879;SDS011;39791;53.184;5.486;2024-01-16T04:33:16;34.78;;;30.42;;
53879;SDS011;39791;53.184;5.486;2024-01-16T04:35:42;34.08;;;30.58;;
53879;SDS011;39791;53.184;5.486;2024-01-16T04:38:07;43.70;;;29.20;;
53879;SDS011;39791;53.184;5.486;2024-01-16T04:40:33;30.55;;;27.40;;
53879;SDS011;39791;53.184;5.486;2024-01-16T04:42:59;31.77;;;28.80;;
53879;SDS011;39791;53.184;5.486;2024-01-16T04:45:24;28.52;;;25.88;;
53879;SDS011;39791;53.184;5.486;2024-01-16T04:47:50;31.83;;;26.95;;
53879;SDS011;39791;53.184;5.486;2024-01-16T04:50:16;46.90;;;30.27;;
53879;SDS011;39791;53.184;5.486;2024-01-16T04:52:41;32.78;;;29.52;;
53879;SDS011;39791;53.184;5.486;2024-01-16T04:55:08;38.03;;;28.60;;
53879;SDS011;39791;53.184;5.486;2024-01-16T04:57:34;31.13;;;27.77;;
53879;SDS011;39791;53.184;5.486;2024-01-16T04:59:59;29.23;;;26.73;;
53879;SDS011;39791;53.184;5.486;2024-01-16T05:02:25;29.33;;;26.13;;
53879;SDS011;39791;53.184;5.486;2024-01-16T05:04:50;29.40;;;26.58;;
53879;SDS011;39791;53.184;5.486;2024-01-16T05:07:20;36.35;;;27.10;;
53879;SDS011;39791;53.184;5.486;2024-01-16T05:09:48;32.45;;;29.30;;
53879;SDS011;39791;53.184;5.486;2024-01-16T05:12:14;34.38;;;31.38;;
53879;SDS011;39791;53.184;5.486;2024-01-16T05:14:40;36.38;;;32.40;;
53879;SDS011;39791;53.184;5.486;2024-01-16T05:17:05;34.30;;;31.00;;
53879;SDS011;39791;53.184;5.486;2024-01-16T05:19:31;34.08;;;30.85;;
53879;SDS011;39791;53.184;5.486;2024-01-16T05:21:57;32.80;;;29.30;;
53879;SDS011;39791;53.184;5.486;2024-01-16T05:24:22;31.38;;;26.20;;
53879;SDS011;39791;53.184;5.486;2024-01-16T05:26:48;29.05;;;25.92;;
53879;SDS011;39791;53.184;5.486;2024-01-16T05:29:13;32.70;;;27.98;;
53879;SDS011;39791;53.184;5.486;2024-01-16T05:31:40;32.83;;;28.80;;
53879;SDS011;39791;53.184;5.486;2024-01-16T05:34:06;31.42;;;28.15;;
53879;SDS011;39791;53.184;5.486;2024-01-16T05:36:32;30.55;;;27.45;;
53879;SDS011;39791;53.184;5.486;2024-01-16T05:38:57;31.92;;;29.02;;
53879;SDS011;39791;53.184;5.486;2024-01-16T05:41:23;31.60;;;28.80;;
53879;SDS011;39791;53.184;5.486;2024-01-16T05:43:48;37.45;;;27.55;;
53879;SDS011;39791;53.184;5.486;2024-01-16T05:46:14;31.38;;;28.17;;
53879;SDS011;39791;53.184;5.486;2024-01-16T05:48:39;34.17;;;28.67;;
53879;SDS011;39791;53.184;5.486;2024-01-16T05:51:05;41.75;;;30.60;;
53879;SDS011;39791;53.184;5.486;2024-01-16T05:53:31;34.15;;;30.75;;
53879;SDS011;39791;53.184;5.486;2024-01-16T05:55:56;44.65;;;33.42;;
53879;SDS011;39791;53.184;5.486;2024-01-16T05:58:22;37.95;;;34.10;;
53879;SDS011;39791;53.184;5.486;2024-01-16T06:00:47;38.65;;;34.03;;
53879;SDS011;39791;53.184;5.486;2024-01-16T06:03:13;38.00;;;33.53;;
53879;SDS011;39791;53.184;5.486;2024-01-16T06:05:38;48.83;;;36.53;;
53879;SDS011;39791;53.184;5.486;2024-01-16T06:08:04;42.22;;;33.63;;
53879;SDS011;39791;53.184;5.486;2024-01-16T06:10:30;38.95;;;32.10;;
53879;SDS011;39791;53.184;5.486;2024-01-16T06:12:56;43.15;;;33.88;;
53879;SDS011;39791;53.184;5.486;2024-01-16T06:15:21;39.33;;;35.17;;
53879;SDS011;39791;53.184;5.486;2024-01-16T06:17:48;49.05;;;35.30;;
53879;SDS011;39791;53.184;5.486;2024-01-16T06:20:14;46.90;;;36.90;;
53879;SDS011;39791;53.184;5.486;2024-01-16T06:22:39;42.88;;;37.15;;
53879;SDS011;39791;53.184;5.486;2024-01-16T06:25:05;50.22;;;36.88;;
53879;SDS011;39791;53.184;5.486;2024-01-16T06:27:31;45.50;;;38.08;;
53879;SDS011;39791;53.184;5.486;2024-01-16T06:29:57;47.67;;;36.92;;
53879;SDS011;39791;53.184;5.486;2024-01-16T06:32:23;47.80;;;36.55;;
53879;SDS011;39791;53.184;5.486;2024-01-16T06:34:49;44.70;;;37.58;;
53879;SDS011;39791;53.184;5.486;2024-01-16T06:37:14;41.70;;;35.47;;
53879;SDS011;39791;53.184;5.486;2024-01-16T06:39:40;48.13;;;35.67;;
53879;SDS011;39791;53.184;5.486;2024-01-16T06:42:05;38.90;;;34.50;;
53879;SDS011;39791;53.184;5.486;2024-01-16T06:44:31;40.08;;;34.40;;
53879;SDS011;39791;53.184;5.486;2024-01-16T06:46:57;36.65;;;32.70;;
53879;SDS011;39791;53.184;5.486;2024-01-16T06:49:22;34.13;;;30.42;;
53879;SDS011;39791;53.184;5.486;2024-01-16T06:51:48;32.67;;;29.23;;
53879;SDS011;39791;53.184;5.486;2024-01-16T06:54:13;42.25;;;30.85;;
53879;SDS011;39791;53.184;5.486;2024-01-16T06:56:39;40.53;;;29.77;;
53879;SDS011;39791;53.184;5.486;2024-01-16T06:59:05;41.60;;;31.17;;
53879;SDS011;39791;53.184;5.486;2024-01-16T07:01:30;39.47;;;35.35;;
53879;SDS011;39791;53.184;5.486;2024-01-16T07:03:56;45.78;;;34.60;;
53879;SDS011;39791;53.184;5.486;2024-01-16T07:06:21;46.92;;;34.78;;
53879;SDS011;39791;53.184;5.486;2024-01-16T07:08:47;41.33;;;33.83;;
53879;SDS011;39791;53.184;5.486;2024-01-16T07:11:13;44.72;;;35.10;;
53879;SDS011;39791;53.184;5.486;2024-01-16T07:13:39;41.13;;;35.63;;
53879;SDS011;39791;53.184;5.486;2024-01-16T07:16:06;39.83;;;35.85;;
53879;SDS011;39791;53.184;5.486;2024-01-16T07:18:37;43.05;;;38.33;;
53879;SDS011;39791;53.184;5.486;2024-01-16T07:21:03;47.35;;;41.38;;
53879;SDS011;39791;53.184;5.486;2024-01-16T07:23:29;48.40;;;41.33;;
53879;SDS011;39791;53.184;5.486;2024-01-16T07:25:55;46.38;;;41.58;;
53879;SDS011;39791;53.184;5.486;2024-01-16T07:28:20;46.33;;;41.22;;
53879;SDS011;39791;53.184;5.486;2024-01-16T07:30:47;50.92;;;43.30;;
53879;SDS011;39791;53.184;5.486;2024-01-16T07:33:13;46.47;;;39.97;;
53879;SDS011;39791;53.184;5.486;2024-01-16T07:35:38;48.65;;;40.83;;
53879;SDS011;39791;53.184;5.486;2024-01-16T07:38:06;46.38;;;41.42;;
53879;SDS011;39791;53.184;5.486;2024-01-16T07:40:32;56.17;;;42.97;;
53879;SDS011;39791;53.184;5.486;2024-01-16T07:42:57;46.03;;;41.03;;
53879;SDS011;39791;53.184;5.486;2024-01-16T07:45:23;51.00;;;45.83;;
53879;SDS011;39791;53.184;5.486;2024-01-16T07:47:49;51.53;;;45.95;;
53879;SDS011;39791;53.184;5.486;2024-01-16T07:50:15;52.20;;;45.03;;
53879;SDS011;39791;53.184;5.486;2024-01-16T07:52:40;52.05;;;45.78;;
53879;SDS011;39791;53.184;5.486;2024-01-16T07:55:06;54.10;;;43.05;;
53879;SDS011;39791;53.184;5.486;2024-01-16T07:57:32;53.28;;;42.72;;
53879;SDS011;39791;53.184;5.486;2024-01-16T07:59:58;50.83;;;45.22;;
53879;SDS011;39791;53.184;5.486;2024-01-16T08:02:26;60.92;;;44.65;;
53879;SDS011;39791;53.184;5.486;2024-01-16T08:04:56;51.22;;;45.67;;
53879;SDS011;39791;53.184;5.486;2024-01-16T08:07:22;55.30;;;42.90;;
53879;SDS011;39791;53.184;5.486;2024-01-16T08:09:47;52.88;;;43.22;;
53879;SDS011;39791;53.184;5.486;2024-01-16T08:12:13;52.72;;;44.00;;
53879;SDS011;39791;53.184;5.486;2024-01-16T08:14:39;45.08;;;40.45;;
53879;SDS011;39791;53.184;5.486;2024-01-16T08:17:04;57.60;;;45.75;;
53879;SDS011;39791;53.184;5.486;2024-01-16T08:19:30;56.45;;;46.83;;
53879;SDS011;39791;53.184;5.486;2024-01-16T08:21:55;52.83;;;44.40;;
53879;SDS011;39791;53.184;5.486;2024-01-16T08:24:22;60.63;;;51.03;;
53879;SDS011;39791;53.184;5.486;2024-01-16T08:26:47;60.17;;;53.55;;
53879;SDS011;39791;53.184;5.486;2024-01-16T08:29:13;60.38;;;50.67;;
53879;SDS011;39791;53.184;5.486;2024-01-16T08:31:40;61.47;;;52.85;;
53879;SDS011;39791;53.184;5.486;2024-01-16T08:34:05;56.15;;;50.33;;
53879;SDS011;39791;53.184;5.486;2024-01-16T08:36:31;43.15;;;38.95;;
53879;SDS011;39791;53.184;5.486;2024-01-16T08:38:57;46.50;;;42.22;;
53879;SDS011;39791;53.184;5.486;2024-01-16T08:41:22;37.90;;;34.10;;
53879;SDS011;39791;53.184;5.486;2024-01-16T08:43:48;36.95;;;33.10;;
53879;SDS011;39791;53.184;5.486;2024-01-16T08:46:14;41.60;;;35.65;;
53879;SDS011;39791;53.184;5.486;2024-01-16T08:48:40;39.42;;;35.20;;
53879;SDS011;39791;53.184;5.486;2024-01-16T08:51:07;48.58;;;40.22;;
53879;SDS011;39791;53.184;5.486;2024-01-16T08:53:36;47.33;;;42.13;;
53879;SDS011;39791;53.184;5.486;2024-01-16T08:56:02;45.60;;;40.85;;
53879;SDS011;39791;53.184;5.486;2024-01-16T08:58:29;48.70;;;41.88;;
53879;SDS011;39791;53.184;5.486;2024-01-16T09:00:55;47.70;;;42.35;;
53879;SDS011;39791;53.184;5.486;2024-01-16T09:03:21;49.05;;;43.65;;
53879;SDS011;39791;53.184;5.486;2024-01-16T09:05:46;50.65;;;45.20;;
53879;SDS011;39791;53.184;5.486;2024-01-16T09:08:12;46.67;;;42.13;;
53879;SDS011;39791;53.184;5.486;2024-01-16T09:10:37;47.30;;;42.83;;
53879;SDS011;39791;53.184;5.486;2024-01-16T09:13:03;51.67;;;43.25;;
53879;SDS011;39791;53.184;5.486;2024-01-16T09:15:28;49.55;;;44.58;;
53879;SDS011;39791;53.184;5.486;2024-01-16T09:17:54;48.10;;;43.20;;
53879;SDS011;39791;53.184;5.486;2024-01-16T09:20:19;48.40;;;39.85;;
53879;SDS011;39791;53.184;5.486;2024-01-16T09:22:45;95.68;;;42.75;;
53879;SDS011;39791;53.184;5.486;2024-01-16T09:25:11;44.83;;;40.15;;
53879;SDS011;39791;53.184;5.486;2024-01-16T09:27:36;49.58;;;41.28;;
53879;SDS011;39791;53.184;5.486;2024-01-16T09:30:03;46.38;;;41.28;;
53879;SDS011;39791;53.184;5.486;2024-01-16T09:32:30;47.22;;;42.17;;
53879;SDS011;39791;53.184;5.486;2024-01-16T09:34:55;49.10;;;44.05;;
53879;SDS011;39791;53.184;5.486;2024-01-16T09:37:23;56.42;;;42.58;;
53879;SDS011;39791;53.184;5.486;2024-01-16T09:39:48;47.42;;;42.53;;
53879;SDS011;39791;53.184;5.486;2024-01-16T09:42:15;50.85;;;44.00;;
53879;SDS011;39791;53.184;5.486;2024-01-16T09:44:41;50.90;;;44.92;;
53879;SDS011;39791;53.184;5.486;2024-01-16T09:47:07;54.00;;;46.22;;
53879;SDS011;39791;53.184;5.486;2024-01-16T09:49:36;62.60;;;45.05;;
53879;SDS011;39791;53.184;5.486;2024-01-16T09:52:02;50.40;;;43.35;;
53879;SDS011;39791;53.184;5.486;2024-01-16T09:54:28;57.92;;;46.90;;
53879;SDS011;39791;53.184;5.486;2024-01-16T09:56:54;51.10;;;45.08;;
53879;SDS011;39791;53.184;5.486;2024-01-16T09:59:23;54.42;;;46.03;;
53879;SDS011;39791;53.184;5.486;2024-01-16T10:01:51;63.10;;;45.08;;
53879;SDS011;39791;53.184;5.486;2024-01-16T10:04:19;58.72;;;45.67;;
53879;SDS011;39791;53.184;5.486;2024-01-16T10:06:45;54.15;;;47.92;;
53879;SDS011;39791;53.184;5.486;2024-01-16T10:09:12;56.65;;;47.33;;
53879;SDS011;39791;53.184;5.486;2024-01-16T10:11:37;62.65;;;47.88;;
53879;SDS011;39791;53.184;5.486;2024-01-16T10:14:03;58.30;;;45.95;;
53879;SDS011;39791;53.184;5.486;2024-01-16T10:19:24;56.10;;;45.30;;
53879;SDS011;39791;53.184;5.486;2024-01-16T10:21:51;60.03;;;47.25;;
53879;SDS011;39791;53.184;5.486;2024-01-16T10:24:17;63.08;;;44.72;;
53879;SDS011;39791;53.184;5.486;2024-01-16T10:26:42;49.08;;;43.13;;
53879;SDS011;39791;53.184;5.486;2024-01-16T10:29:08;49.58;;;41.15;;
53879;SDS011;39791;53.184;5.486;2024-01-16T10:31:34;50.17;;;43.58;;
53879;SDS011;39791;53.184;5.486;2024-01-16T10:33:59;48.53;;;42.97;;
53879;SDS011;39791;53.184;5.486;2024-01-16T10:36:25;47.70;;;39.75;;
53879;SDS011;39791;53.184;5.486;2024-01-16T10:38:51;63.78;;;44.75;;
53879;SDS011;39791;53.184;5.486;2024-01-16T10:41:23;64.20;;;47.80;;
53879;SDS011;39791;53.184;5.486;2024-01-16T10:44:04;61.20;;;47.25;;
53879;SDS011;39791;53.184;5.486;2024-01-16T10:46:34;50.05;;;43.53;;
53879;SDS011;39791;53.184;5.486;2024-01-16T10:49:01;53.00;;;44.95;;
53879;SDS011;39791;53.184;5.486;2024-01-16T10:51:28;56.67;;;43.03;;
53879;SDS011;39791;53.184;5.486;2024-01-16T10:53:58;52.33;;;46.28;;
53879;SDS011;39791;53.184;5.486;2024-01-16T10:56:28;50.45;;;42.67;;
53879;SDS011;39791;53.184;5.486;2024-01-16T10:59:02;48.33;;;43.05;;
53879;SDS011;39791;53.184;5.486;2024-01-16T11:01:32;59.95;;;44.53;;
53879;SDS011;39791;53.184;5.486;2024-01-16T11:03:58;55.13;;;45.40;;
53879;SDS011;39791;53.184;5.486;2024-01-16T11:06:26;49.53;;;44.83;;
53879;SDS011;39791;53.184;5.486;2024-01-16T11:08:53;52.00;;;46.85;;
53879;SDS011;39791;53.184;5.486;2024-01-16T11:11:21;59.35;;;43.22;;
53879;SDS011;39791;53.184;5.486;2024-01-16T11:13:47;59.78;;;50.47;;
53879;SDS011;39791;53.184;5.486;2024-01-16T11:16:14;53.42;;;47.83;;
53879;SDS011;39791;53.184;5.486;2024-01-16T11:18:41;57.03;;;46.65;;
53879;SDS011;39791;53.184;5.486;2024-01-16T11:21:10;50.97;;;45.53;;
53879;SDS011;39791;53.184;5.486;2024-01-16T11:23:41;52.85;;;43.88;;
53879;SDS011;39791;53.184;5.486;2024-01-16T11:26:27;53.33;;;47.50;;
53879;SDS011;39791;53.184;5.486;2024-01-16T11:28:54;51.35;;;46.13;;
53879;SDS011;39791;53.184;5.486;2024-01-16T11:33:54;52.53;;;47.00;;
53879;SDS011;39791;53.184;5.486;2024-01-16T11:39:17;52.20;;;45.47;;
53879;SDS011;39791;53.184;5.486;2024-01-16T11:47:05;45.97;;;41.23;;
53879;SDS011;39791;53.184;5.486;2024-01-16T11:49:31;46.63;;;42.03;;
53879;SDS011;39791;53.184;5.486;2024-01-16T11:51:57;49.28;;;42.15;;
53879;SDS011;39791;53.184;5.486;2024-01-16T11:54:24;48.63;;;40.70;;
53879;SDS011;39791;53.184;5.486;2024-01-16T11:59:58;49.75;;;44.65;;
53879;SDS011;39791;53.184;5.486;2024-01-16T12:05:12;49.80;;;44.40;;
53879;SDS011;39791;53.184;5.486;2024-01-16T12:07:45;54.45;;;44.83;;
53879;SDS011;39791;53.184;5.486;2024-01-16T12:10:20;51.92;;;44.85;;
53879;SDS011;39791;53.184;5.486;2024-01-16T12:12:48;50.60;;;45.55;;
53879;SDS011;39791;53.184;5.486;2024-01-16T12:15:18;49.67;;;44.78;;
53879;SDS011;39791;53.184;5.486;2024-01-16T12:20:31;49.88;;;43.65;;
53879;SDS011;39791;53.184;5.486;2024-01-16T12:25:25;45.63;;;40.70;;
53879;SDS011;39791;53.184;5.486;2024-01-16T12:27:55;49.15;;;41.10;;
53879;SDS011;39791;53.184;5.486;2024-01-16T12:30:40;48.80;;;40.65;;
53879;SDS011;39791;53.184;5.486;2024-01-16T12:33:14;49.33;;;39.97;;
53879;SDS011;39791;53.184;5.486;2024-01-16T12:35:40;45.63;;;39.55;;
53879;SDS011;39791;53.184;5.486;2024-01-16T12:38:10;46.97;;;41.92;;
53879;SDS011;39791;53.184;5.486;2024-01-16T12:40:45;46.20;;;40.42;;
53879;SDS011;39791;53.184;5.486;2024-01-16T12:43:19;47.67;;;39.08;;
53879;SDS011;39791;53.184;5.486;2024-01-16T12:45:45;41.97;;;37.03;;
53879;SDS011;39791;53.184;5.486;2024-01-16T12:48:11;42.72;;;36.78;;
53879;SDS011;39791;53.184;5.486;2024-01-16T12:50:37;41.25;;;33.05;;
53879;SDS011;39791;53.184;5.486;2024-01-16T12:55:33;36.00;;;32.08;;
53879;SDS011;39791;53.184;5.486;2024-01-16T12:58:13;34.45;;;28.92;;
53879;SDS011;39791;53.184;5.486;2024-01-16T13:00:45;33.88;;;30.38;;
53879;SDS011;39791;53.184;5.486;2024-01-16T13:03:15;30.88;;;27.67;;
53879;SDS011;39791;53.184;5.486;2024-01-16T13:05:42;31.90;;;28.25;;
53879;SDS011;39791;53.184;5.486;2024-01-16T13:08:08;24.67;;;22.33;;
53879;SDS011;39791;53.184;5.486;2024-01-16T13:10:34;27.77;;;22.80;;
53879;SDS011;39791;53.184;5.486;2024-01-16T13:13:11;23.85;;;21.80;;
53879;SDS011;39791;53.184;5.486;2024-01-16T13:15:37;28.98;;;25.83;;
53879;SDS011;39791;53.184;5.486;2024-01-16T13:18:03;23.98;;;21.63;;
53879;SDS011;39791;53.184;5.486;2024-01-16T13:20:29;26.70;;;23.85;;
53879;SDS011;39791;53.184;5.486;2024-01-16T13:22:55;26.48;;;23.67;;
53879;SDS011;39791;53.184;5.486;2024-01-16T13:25:21;26.00;;;23.55;;
53879;SDS011;39791;53.184;5.486;2024-01-16T13:27:46;31.83;;;25.63;;
53879;SDS011;39791;53.184;5.486;2024-01-16T13:30:12;25.77;;;23.02;;
53879;SDS011;39791;53.184;5.486;2024-01-16T13:32:38;27.15;;;24.33;;
53879;SDS011;39791;53.184;5.486;2024-01-16T13:35:03;31.02;;;24.38;;
53879;SDS011;39791;53.184;5.486;2024-01-16T13:37:33;24.48;;;19.63;;
53879;SDS011;39791;53.184;5.486;2024-01-16T13:40:02;19.90;;;17.80;;
53879;SDS011;39791;53.184;5.486;2024-01-16T13:42:28;22.20;;;20.05;;
53879;SDS011;39791;53.184;5.486;2024-01-16T13:44:54;23.42;;;19.77;;
53879;SDS011;39791;53.184;5.486;2024-01-16T13:47:20;25.52;;;20.88;;
53879;SDS011;39791;53.184;5.486;2024-01-16T13:49:46;21.35;;;18.95;;
53879;SDS011;39791;53.184;5.486;2024-01-16T13:52:12;23.65;;;21.23;;
53879;SDS011;39791;53.184;5.486;2024-01-16T13:54:37;25.42;;;22.10;;
53879;SDS011;39791;53.184;5.486;2024-01-16T13:57:04;20.23;;;18.30;;
53879;SDS011;39791;53.184;5.486;2024-01-16T13:59:30;21.63;;;19.85;;
53879;SDS011;39791;53.184;5.486;2024-01-16T14:01:55;18.33;;;16.73;;
53879;SDS011;39791;53.184;5.486;2024-01-16T14:04:21;19.85;;;18.17;;
53879;SDS011;39791;53.184;5.486;2024-01-16T14:06:46;24.40;;;20.88;;
53879;SDS011;39791;53.184;5.486;2024-01-16T14:09:12;24.25;;;21.90;;
53879;SDS011;39791;53.184;5.486;2024-01-16T14:11:39;27.75;;;24.92;;
53879;SDS011;39791;53.184;5.486;2024-01-16T14:14:04;29.35;;;26.23;;
53879;SDS011;39791;53.184;5.486;2024-01-16T14:16:30;29.70;;;26.75;;
53879;SDS011;39791;53.184;5.486;2024-01-16T14:18:55;31.33;;;28.05;;
53879;SDS011;39791;53.184;5.486;2024-01-16T14:21:21;30.17;;;27.35;;
53879;SDS011;39791;53.184;5.486;2024-01-16T14:23:46;37.75;;;28.52;;
53879;SDS011;39791;53.184;5.486;2024-01-16T14:26:12;34.25;;;28.85;;
53879;SDS011;39791;53.184;5.486;2024-01-16T14:28:37;31.45;;;28.23;;
53879;SDS011;39791;53.184;5.486;2024-01-16T14:31:03;30.83;;;27.70;;
53879;SDS011;39791;53.184;5.486;2024-01-16T14:33:29;33.33;;;29.88;;
53879;SDS011;39791;53.184;5.486;2024-01-16T14:35:54;35.53;;;30.27;;
53879;SDS011;39791;53.184;5.486;2024-01-16T14:38:20;34.88;;;31.25;;
53879;SDS011;39791;53.184;5.486;2024-01-16T14:40:46;38.08;;;30.33;;
53879;SDS011;39791;53.184;5.486;2024-01-16T14:43:11;36.58;;;31.40;;